OPLA

Alama Iqbal International Airport

Lahore, Pakistan
TAF OPLA 241545Z 2418/2524 12005KT 4000 FU NSC TX32/2510Z TN21/2424Z FM050400 31008KT 6000 NSC FM251400 24005KT 4000 FU SNC
Issued Valid From Valid To
Sep-24 @ 15:45 UTC
(8 hours ago)
Sep-24 @ 18:00 UTC
(5 hours ago)
Sep-26 @ 00:00 UTC
(-1 days ago)
Sep-24 @ 18:00 to Sep-26 @ 00:00
TAF OPLA 241545Z 2418/2524 12005KT 4000 FU NSC TX32/2510Z TN21/2424Z
Wind Visibility Clouds Conditions
120° at 5 knots 4,007 meters
  • No significant clouds
  • Smoke
From Sep-5 @ 04:00 to Sep-25 @ 14:00
FM050400 31008KT 6000 NSC
Wind Visibility Clouds
310° at 8 knots 6,003 meters
  • No significant clouds
From Sep-25 @ 14:00 to Sep-26 @ 00:00
FM251400 24005KT 4000 FU SNC
Wind Visibility Conditions
240° at 5 knots 4,007 meters
  • Smoke
  • Snow
TAF OPLA 241545Z 2418/2524 12005KT 4000 FU NSC TX32/2510Z TN21/2424Z FM050400 31008KT 6000 NSC FM251400 24005KT 4000 FU SNC
Issued Sep-24 @ 15:45 UTC
(8 hours ago)
Valid From Sep-24 @ 18:00 UTC
(5 hours ago)
Valid To Sep-26 @ 00:00 UTC
(-1 days ago)
Sep-24 @ 18:00 - Sep-26 @ 00:00
Wind Visibility
120° at 5 knots 4,007 meters
Clouds
  • No significant clouds
Conditions
  • Smoke
From Sep-5 @ 04:00 - Sep-25 @ 14:00
Wind Visibility
310° at 8 knots 6,003 meters
Clouds
  • No significant clouds
From Sep-25 @ 14:00 - Sep-26 @ 00:00
Wind Visibility
240° at 5 knots 4,007 meters
Conditions
  • Smoke
  • Snow